Time,TemperatureF,DewpointF,PressureIn,WindDirection,WindDirectionDegrees,WindSpeedMPH,WindSpeedGustMPH,Humidity,HourlyPrecipIn,Conditions,Clouds,dailyrainin,SoftwareType,DateUTC
2013-08-11 00:07:00,56.2,55.0,30.00,SSW,207,0.0,1.0,94,0.00,,,0.00,weatherlink.com 1.10,2013-08-11 07:07:00,
2013-08-11 00:37:00,55.8,54.0,30.00,SSW,208,0.0,0.0,95,0.00,,,0.00,weatherlink.com 1.10,2013-08-11 07:37:00,
2013-08-11 00:52:00,55.8,54.0,30.00,SSW,208,0.0,0.0,95,0.00,,,0.00,weatherlink.com 1.10,2013-08-11 07:52:00,
2013-08-11 01:07:00,55.7,54.0,30.00,SSW,208,0.0,0.0,95,0.00,,,0.00,weatherlink.com 1.10,2013-08-11 08:07:00,
2013-08-11 01:22:00,55.5,54.0,30.00,SSW,208,0.0,0.0,95,0.00,,,0.00,weatherlink.com 1.10,2013-08-11 08:22:00,
2013-08-11 01:37:00,55.5,54.0,30.00,SSW,208,0.0,0.0,95,0.00,,,0.00,weatherlink.com 1.10,2013-08-11 08:37:00,
2013-08-11 01:52:00,55.6,54.0,30.00,SSW,207,0.0,0.0,95,0.00,,,0.00,weatherlink.com 1.10,2013-08-11 08:52:00,
2013-08-11 02:22:00,55.3,54.0,30.00,SW,225,0.0,0.0,95,0.00,,,0.00,weatherlink.com 1.10,2013-08-11 09:22:00,
2013-08-11 02:52:00,55.1,54.0,30.00,SW,225,0.0,0.0,95,0.00,,,0.00,weatherlink.com 1.10,2013-08-11 09:52:00,
2013-08-11 03:07:00,55.1,54.0,30.00,SW,225,0.0,0.0,95,0.00,,,0.00,weatherlink.com 1.10,2013-08-11 10:07:00,
2013-08-11 03:22:00,55.1,54.0,29.99,SW,225,0.0,1.0,95,0.00,,,0.00,weatherlink.com 1.10,2013-08-11 10:22:00,
2013-08-11 03:37:00,54.9,54.0,29.99,SW,225,0.0,0.0,95,0.00,,,0.00,weatherlink.com 1.10,2013-08-11 10:37:00,
2013-08-11 03:52:00,54.8,54.0,29.99,SW,225,0.0,0.0,96,0.00,,,0.00,weatherlink.com 1.10,2013-08-11 10:52:00,
2013-08-11 04:08:00,54.7,54.0,30.00,SW,225,0.0,0.0,96,0.00,,,0.00,weatherlink.com 1.10,2013-08-11 11:08:00,
2013-08-11 04:23:00,54.5,53.0,29.99,SW,225,0.0,0.0,96,0.00,,,0.00,weatherlink.com 1.10,2013-08-11 11:23:00,
2013-08-11 05:23:00,54.0,53.0,30.00,SW,225,0.0,1.0,96,0.00,,,0.00,weatherlink.com 1.10,2013-08-11 12:23:00,
2013-08-11 05:53:00,53.9,53.0,30.00,SW,225,0.0,1.0,96,0.00,,,0.00,weatherlink.com 1.10,2013-08-11 12:53:00,
2013-08-11 06:08:00,54.1,53.0,30.00,SW,225,0.0,0.0,97,0.00,,,0.00,weatherlink.com 1.10,2013-08-11 13:08:00,
2013-08-11 06:23:00,54.1,53.0,30.00,SW,225,0.0,0.0,96,0.00,,,0.00,weatherlink.com 1.10,2013-08-11 13:23:00,
2013-08-11 06:38:00,54.1,53.0,30.01,SW,226,0.0,0.0,96,0.00,,,0.00,weatherlink.com 1.10,2013-08-11 13:38:00,
2013-08-11 06:53:00,54.0,53.0,30.01,SW,226,0.0,0.0,96,0.00,,,0.00,weatherlink.com 1.10,2013-08-11 13:53:00,
2013-08-11 07:08:00,54.1,53.0,30.01,SW,225,0.0,0.0,96,0.00,,,0.00,weatherlink.com 1.10,2013-08-11 14:08:00,
2013-08-11 07:23:00,54.2,53.0,30.01,SW,231,0.0,0.0,96,0.00,,,0.00,weatherlink.com 1.10,2013-08-11 14:23:00,
2013-08-11 07:38:00,54.4,53.0,30.01,WNW,296,0.0,1.0,96,0.00,,,0.00,weatherlink.com 1.10,2013-08-11 14:38:00,
2013-08-11 07:53:00,54.7,54.0,30.01,WNW,297,0.0,0.0,96,0.00,,,0.00,weatherlink.com 1.10,2013-08-11 14:53:00,
2013-08-11 08:08:00,55.0,54.0,30.01,WNW,296,0.0,0.0,96,0.00,,,0.00,weatherlink.com 1.10,2013-08-11 15:08:00,
2013-08-11 08:38:00,55.5,54.0,30.01,WNW,295,0.0,0.0,95,0.00,,,0.00,weatherlink.com 1.10,2013-08-11 15:38:00,
2013-08-11 08:53:00,55.6,54.0,30.01,WNW,297,0.0,0.0,95,0.00,,,0.00,weatherlink.com 1.10,2013-08-11 15:53:00,
2013-08-11 09:08:00,55.9,55.0,30.01,SW,217,0.0,0.0,95,0.00,,,0.00,weatherlink.com 1.10,2013-08-11 16:08:00,
2013-08-11 09:23:00,56.3,55.0,30.01,SW,217,0.0,1.0,95,0.00,,,0.00,weatherlink.com 1.10,2013-08-11 16:23:00,
2013-08-11 09:38:00,56.6,55.0,30.01,SSE,164,0.0,0.0,94,0.00,,,0.00,weatherlink.com 1.10,2013-08-11 16:38:00,
2013-08-11 09:53:00,57.2,55.0,30.01,SSW,201,0.0,1.0,93,0.00,,,0.00,weatherlink.com 1.10,2013-08-11 16:53:00,
2013-08-11 10:08:00,57.8,56.0,30.01,SSW,204,0.0,0.0,92,0.00,,,0.00,weatherlink.com 1.10,2013-08-11 17:08:00,
2013-08-11 10:23:00,58.4,56.0,30.00,North,358,0.0,1.0,92,0.00,,,0.00,weatherlink.com 1.10,2013-08-11 17:23:00,
2013-08-11 10:38:00,59.3,57.0,30.00,SE,146,0.0,1.0,91,0.00,,,0.00,weatherlink.com 1.10,2013-08-11 17:38:00,
2013-08-11 10:53:00,60.5,57.0,30.00,SSE,160,0.0,1.0,89,0.00,,,0.00,weatherlink.com 1.10,2013-08-11 17:53:00,
2013-08-11 11:08:00,61.7,58.0,30.00,SW,216,0.0,1.0,86,0.00,,,0.00,weatherlink.com 1.10,2013-08-11 18:08:00,
2013-08-11 11:23:00,62.9,58.0,29.99,NNE,23,0.0,1.0,85,0.00,,,0.00,weatherlink.com 1.10,2013-08-11 18:23:00,
2013-08-11 11:53:00,66.0,60.0,29.98,NW,308,0.0,1.0,80,0.00,,,0.00,weatherlink.com 1.10,2013-08-11 18:53:00,
2013-08-11 12:09:00,67.7,60.0,29.98,SSW,212,0.0,2.0,77,0.00,,,0.00,weatherlink.com 1.10,2013-08-11 19:09:00,
2013-08-11 12:39:00,71.1,62.0,29.97,West,271,0.0,2.0,73,0.00,,,0.00,weatherlink.com 1.10,2013-08-11 19:39:00,
2013-08-11 13:24:00,74.6,62.0,29.96,SW,226,0.0,3.0,66,0.00,,,0.00,weatherlink.com 1.10,2013-08-11 20:24:00,
2013-08-11 13:39:00,75.3,62.0,29.95,SSW,204,0.0,3.0,63,0.00,,,0.00,weatherlink.com 1.10,2013-08-11 20:39:00,
2013-08-11 13:54:00,75.7,61.0,29.95,SW,228,0.0,2.0,60,0.00,,,0.00,weatherlink.com 1.10,2013-08-11 20:54:00,
2013-08-11 14:09:00,75.7,61.0,29.95,West,276,0.0,3.0,60,0.00,,,0.00,weatherlink.com 1.10,2013-08-11 21:09:00,
2013-08-11 14:24:00,75.9,60.0,29.95,West,277,0.0,2.0,59,0.00,,,0.00,weatherlink.com 1.10,2013-08-11 21:24:00,
2013-08-11 14:39:00,76.3,61.0,29.94,SSW,201,0.0,2.0,59,0.00,,,0.00,weatherlink.com 1.10,2013-08-11 21:39:00,
2013-08-11 14:54:00,76.6,60.0,29.94,SW,236,0.0,2.0,57,0.00,,,0.00,weatherlink.com 1.10,2013-08-11 21:54:00,
2013-08-11 15:09:00,75.8,60.0,29.94,WSW,246,0.0,1.0,58,0.00,,,0.00,weatherlink.com 1.10,2013-08-11 22:09:00,
2013-08-11 15:39:00,74.5,60.0,29.93,SSW,204,1.0,2.0,60,0.00,,,0.00,weatherlink.com 1.10,2013-08-11 22:39:00,
2013-08-11 15:54:00,73.2,59.0,29.93,SSW,211,2.0,3.0,61,0.00,,,0.00,weatherlink.com 1.10,2013-08-11 22:54:00,
2013-08-11 16:09:00,72.2,58.0,29.93,SW,226,0.0,2.0,62,0.00,,,0.00,weatherlink.com 1.10,2013-08-11 23:09:00,
2013-08-11 16:24:00,71.5,58.0,29.93,SSW,195,0.0,1.0,63,0.00,,,0.00,weatherlink.com 1.10,2013-08-11 23:24:00,
2013-08-11 16:39:00,70.7,58.0,29.92,West,280,1.0,1.0,65,0.00,,,0.00,weatherlink.com 1.10,2013-08-11 23:39:00,
2013-08-11 16:54:00,70.4,58.0,29.91,West,280,0.0,1.0,66,0.00,,,0.00,weatherlink.com 1.10,2013-08-11 23:54:00,
2013-08-11 17:09:00,70.3,59.0,29.91,SW,231,0.0,1.0,67,0.00,,,0.00,weatherlink.com 1.10,2013-08-12 00:09:00,
2013-08-11 17:24:00,70.1,59.0,29.91,SW,232,1.0,1.0,67,0.00,,,0.00,weatherlink.com 1.10,2013-08-12 00:24:00,
2013-08-11 17:39:00,69.6,59.0,29.90,SW,232,1.0,1.0,68,0.00,,,0.00,weatherlink.com 1.10,2013-08-12 00:39:00,
2013-08-11 18:09:00,68.5,58.0,29.90,West,260,0.0,1.0,69,0.00,,,0.00,weatherlink.com 1.10,2013-08-12 01:09:00,
2013-08-11 18:24:00,67.7,58.0,29.90,WSW,255,0.0,1.0,70,0.00,,,0.00,weatherlink.com 1.10,2013-08-12 01:24:00,
2013-08-11 18:39:00,67.0,57.0,29.90,WSW,255,0.0,1.0,71,0.00,,,0.00,weatherlink.com 1.10,2013-08-12 01:39:00,
2013-08-11 18:54:00,66.2,57.0,29.90,WSW,250,1.0,1.0,73,0.00,,,0.00,weatherlink.com 1.10,2013-08-12 01:54:00,
2013-08-11 19:09:00,65.5,57.0,29.90,WSW,250,0.0,1.0,74,0.00,,,0.00,weatherlink.com 1.10,2013-08-12 02:09:00,
2013-08-11 19:39:00,64.3,57.0,29.91,WSW,250,0.0,0.0,76,0.00,,,0.00,weatherlink.com 1.10,2013-08-12 02:39:00,
2013-08-11 19:54:00,63.6,57.0,29.91,WSW,250,0.0,0.0,78,0.00,,,0.00,weatherlink.com 1.10,2013-08-12 02:54:00,
2013-08-11 20:24:00,62.2,56.0,29.92,WSW,250,0.0,0.0,80,0.00,,,0.00,weatherlink.com 1.10,2013-08-12 03:24:00,
2013-08-11 20:54:00,60.8,56.0,29.93,WSW,250,0.0,0.0,83,0.00,,,0.00,weatherlink.com 1.10,2013-08-12 03:54:00,
2013-08-11 21:09:00,60.0,55.0,29.93,WSW,250,0.0,0.0,84,0.00,,,0.00,weatherlink.com 1.10,2013-08-12 04:09:00,
2013-08-11 21:25:00,59.4,55.0,29.93,WSW,250,0.0,0.0,85,0.00,,,0.00,weatherlink.com 1.10,2013-08-12 04:25:00,
2013-08-11 21:40:00,58.9,55.0,29.94,WSW,250,0.0,0.0,86,0.00,,,0.00,weatherlink.com 1.10,2013-08-12 04:40:00,
2013-08-11 21:55:00,58.3,55.0,29.94,WSW,250,0.0,0.0,87,0.00,,,0.00,weatherlink.com 1.10,2013-08-12 04:55:00,
2013-08-11 22:10:00,57.9,54.0,29.94,WSW,250,0.0,0.0,87,0.00,,,0.00,weatherlink.com 1.10,2013-08-12 05:10:00,
2013-08-11 22:25:00,57.4,54.0,29.94,WSW,250,0.0,0.0,88,0.00,,,0.00,weatherlink.com 1.10,2013-08-12 05:25:00,
2013-08-11 22:40:00,56.9,53.0,29.94,WSW,250,0.0,0.0,88,0.00,,,0.00,weatherlink.com 1.10,2013-08-12 05:40:00,
2013-08-11 22:55:00,56.4,53.0,29.95,WSW,250,0.0,0.0,89,0.00,,,0.00,weatherlink.com 1.10,2013-08-12 05:55:00,
2013-08-11 23:10:00,55.9,53.0,29.95,WSW,250,0.0,0.0,90,0.00,,,0.00,weatherlink.com 1.10,2013-08-12 06:10:00,
2013-08-11 23:25:00,55.5,53.0,29.95,WSW,250,0.0,0.0,91,0.00,,,0.00,weatherlink.com 1.10,2013-08-12 06:25:00,
2013-08-11 23:40:00,55.1,53.0,29.95,WSW,250,0.0,0.0,91,0.00,,,0.00,weatherlink.com 1.10,2013-08-12 06:40:00,
2013-08-11 23:55:00,54.8,52.0,29.95,WSW,250,0.0,0.0,91,0.00,,,0.00,weatherlink.com 1.10,2013-08-12 06:55:00,